Time;durP1;ratioP1;P1;durP2;ratioP2;P2;SDS_P1;SDS_P2;PMS_P1;PMS_P2;Temp;Humidity;BMP_temperature;BMP_pressure;BME280_temperature;BME280_humidity;BME280_pressure;Samples;Min_cycle;Max_cycle;Signal;HPM_P1;HPM_P2
2023/10/07 00:02:14;;;;;;;4.97;2.42;;;;;;;16.99;62.08;102134.69;5146231;27;20074;-65
2023/10/07 00:04:45;;;;;;;5.80;2.70;;;;;;;17.00;62.09;102140.94;5156497;27;20058;-65
2023/10/07 00:07:14;;;;;;;6.68;3.47;;;;;;;16.95;62.20;102148.97;5149883;27;20085;-65
2023/10/07 00:09:43;;;;;;;8.18;2.38;;;;;;;16.98;62.22;102153.94;5151232;27;20103;-65
2023/10/07 00:12:14;;;;;;;5.60;2.60;;;;;;;16.97;62.37;102135.97;5155529;27;20047;-65
2023/10/07 00:14:43;;;;;;;12.13;2.75;;;;;;;16.97;62.37;102141.41;5146944;27;20062;-65
2023/10/07 00:17:16;;;;;;;5.70;2.53;;;;;;;16.96;62.38;102128.91;5145777;27;20039;-64
2023/10/07 00:19:47;;;;;;;5.68;2.75;;;;;;;16.94;62.47;102120.97;5147269;27;20114;-64
2023/10/07 00:22:19;;;;;;;7.03;3.03;;;;;;;16.95;62.32;102117.19;5149137;27;20042;-64
2023/10/07 00:24:48;;;;;;;9.15;3.33;;;;;;;16.96;62.31;102118.03;5156709;27;20050;-64
2023/10/07 00:27:27;;;;;;;8.55;2.92;;;;;;;16.95;62.24;102116.38;5152708;27;20047;-64
2023/10/07 00:29:55;;;;;;;6.40;2.70;;;;;;;16.94;62.33;102114.72;5150097;27;20056;-65
2023/10/07 00:32:27;;;;;;;7.28;3.25;;;;;;;16.93;62.46;102130.19;5150524;27;20046;-65
2023/10/07 00:34:59;;;;;;;6.30;2.50;;;;;;;16.92;62.44;102114.94;5149405;27;20042;-64
2023/10/07 00:37:29;;;;;;;7.43;2.35;;;;;;;16.90;62.61;102117.91;5149040;27;20043;-65
2023/10/07 00:40:01;;;;;;;11.82;3.33;;;;;;;16.87;62.60;102117.53;5150861;27;20043;-65
2023/10/07 00:42:29;;;;;;;5.47;2.88;;;;;;;16.90;62.61;102120.63;5146639;27;20061;-64
2023/10/07 00:44:57;;;;;;;8.30;3.08;;;;;;;16.89;62.71;102137.97;5152820;27;20052;-64
2023/10/07 00:47:26;;;;;;;5.03;2.38;;;;;;;16.88;62.55;102141.75;5146109;27;20191;-63
2023/10/07 00:49:57;;;;;;;8.35;3.35;;;;;;;16.88;62.84;102127.34;5148765;27;20070;-64
2023/10/07 00:52:29;;;;;;;6.03;3.10;;;;;;;16.87;62.73;102125.69;5147106;27;20054;-65
2023/10/07 00:55:08;;;;;;;5.95;2.83;;;;;;;16.86;62.83;102115.88;5150156;27;20616;-64
2023/10/07 00:57:37;;;;;;;7.47;2.90;;;;;;;16.85;62.79;102120.50;5148121;27;20503;-64
2023/10/07 01:00:30;;;;;;;6.57;2.35;;;;;;;16.85;62.83;102108.78;5144682;27;20051;-65
2023/10/07 01:03:12;;;;;;;6.05;3.03;;;;;;;16.83;62.91;102111.75;5155581;27;20102;-64
2023/10/07 01:05:53;;;;;;;5.97;2.78;;;;;;;16.84;62.95;102099.00;5145590;27;20043;-64
2023/10/07 01:08:26;;;;;;;8.07;3.03;;;;;;;16.84;62.84;102096.28;5148507;27;20051;-64
2023/10/07 01:11:06;;;;;;;4.40;2.40;;;;;;;16.83;62.91;102092.75;5146330;27;20106;-64
2023/10/07 01:13:35;;;;;;;8.75;2.55;;;;;;;16.82;62.97;102085.66;5146745;27;20059;-64
2023/10/07 01:16:07;;;;;;;8.73;2.75;;;;;;;16.80;63.06;102081.50;5147443;27;20051;-64
2023/10/07 01:18:38;;;;;;;7.80;2.80;;;;;;;16.66;63.29;102061.88;5149607;27;20110;-65
2023/10/07 01:21:11;;;;;;;9.95;4.32;;;;;;;16.78;63.24;102089.91;5151016;27;20074;-64
2023/10/07 01:23:44;;;;;;;5.60;2.92;;;;;;;16.76;63.58;102096.63;5151386;27;20386;-64
2023/10/07 01:26:21;;;;;;;8.18;3.03;;;;;;;16.78;63.61;102106.19;5150090;27;20337;-65
2023/10/07 01:28:57;;;;;;;11.40;3.72;;;;;;;16.75;63.57;102112.09;5153723;27;20043;-65
2023/10/07 01:31:29;;;;;;;11.55;3.60;;;;;;;16.75;63.71;102116.69;5142319;27;20043;-65
2023/10/07 01:34:01;;;;;;;7.50;3.47;;;;;;;16.73;64.03;102116.91;5149967;27;20138;-65
2023/10/07 01:36:30;;;;;;;8.57;3.10;;;;;;;16.74;63.98;102098.75;5140252;27;20048;-64
2023/10/07 01:39:01;;;;;;;9.57;3.50;;;;;;;16.73;63.84;102105.22;5148402;27;20066;-65
2023/10/07 01:41:30;;;;;;;8.50;3.72;;;;;;;16.71;63.97;102113.59;5155114;27;20160;-66
2023/10/07 01:43:59;;;;;;;10.70;4.07;;;;;;;16.71;64.26;102113.59;5151919;27;20415;-65
2023/10/07 01:46:29;;;;;;;9.55;3.72;;;;;;;16.70;64.29;102103.81;5152804;27;20054;-65
2023/10/07 01:49:01;;;;;;;10.82;3.72;;;;;;;16.69;64.22;102093.19;5144952;27;20058;-65
2023/10/07 01:51:30;;;;;;;10.60;3.90;;;;;;;16.70;64.30;102106.50;5147070;27;20043;-65
2023/10/07 01:54:03;;;;;;;8.80;3.50;;;;;;;16.69;64.38;102101.31;5145072;27;20043;-62
2023/10/07 01:56:31;;;;;;;10.38;3.65;;;;;;;16.68;64.70;102096.94;5154157;27;20095;-65
2023/10/07 01:59:09;;;;;;;12.25;4.47;;;;;;;16.67;64.80;102100.72;5147890;27;20053;-64
2023/10/07 02:01:58;;;;;;;11.10;4.45;;;;;;;16.66;64.61;102102.59;5145326;27;20058;-64
2023/10/07 02:04:27;;;;;;;11.18;3.80;;;;;;;16.66;64.73;102101.78;5158053;27;20043;-64
2023/10/07 02:06:57;;;;;;;8.25;3.50;;;;;;;16.66;64.60;102091.75;5144091;27;20229;-64
2023/10/07 02:09:27;;;;;;;8.85;4.20;;;;;;;16.65;64.68;102103.66;5148952;27;20043;-64
2023/10/07 02:11:56;;;;;;;6.75;3.67;;;;;;;16.66;64.89;102101.78;5145138;27;20491;-64
2023/10/07 02:14:25;;;;;;;9.05;4.35;;;;;;;16.65;64.69;102111.00;5151150;27;20063;-64
2023/10/07 02:16:56;;;;;;;16.13;5.57;;;;;;;16.64;65.07;102107.41;5143828;27;20110;-64
2023/10/07 02:19:29;;;;;;;7.85;3.88;;;;;;;16.64;65.10;102099.28;5153901;27;20055;-64
2023/10/07 02:21:59;;;;;;;8.20;4.00;;;;;;;16.63;65.09;102100.31;5148463;27;20103;-65
2023/10/07 02:24:30;;;;;;;10.10;4.05;;;;;;;16.63;65.24;102092.19;5147701;27;20047;-64
2023/10/07 02:27:04;;;;;;;10.98;4.00;;;;;;;16.63;65.42;102094.06;5147013;27;20042;-64
2023/10/07 02:29:32;;;;;;;12.80;4.38;;;;;;;16.63;65.32;102091.34;5145436;27;20078;-64
2023/10/07 02:32:12;;;;;;;10.93;4.72;;;;;;;16.62;65.19;102092.41;5151658;27;20054;-65
2023/10/07 02:34:51;;;;;;;10.80;4.95;;;;;;;16.62;65.34;102087.81;5149697;27;20135;-64
2023/10/07 02:37:21;;;;;;;12.25;5.03;;;;;;;16.62;65.51;102098.66;5138918;27;20048;-64
2023/10/07 02:39:56;;;;;;;12.18;4.68;;;;;;;16.61;65.53;102088.88;5151149;27;20047;-65
2023/10/07 02:42:28;;;;;;;13.50;5.35;;;;;;;16.55;65.57;102074.34;5144941;27;20059;-64
2023/10/07 02:45:11;;;;;;;11.90;5.40;;;;;;;16.60;65.46;102098.06;5144232;27;20102;-63
2023/10/07 02:47:39;;;;;;;13.70;5.18;;;;;;;16.60;65.74;102096.19;5149826;27;20058;-64
2023/10/07 02:50:08;;;;;;;17.08;6.18;;;;;;;16.59;66.07;102099.13;5150703;27;20042;-64
2023/10/07 02:52:38;;;;;;;11.23;6.15;;;;;;;16.59;66.08;102104.56;5143509;27;20043;-65
2023/10/07 02:57:57;;;;;;;9.38;5.53;;;;;;;16.57;66.19;102102.06;5143922;27;20043;-66
2023/10/07 03:00:35;;;;;;;16.15;6.53;;;;;;;16.58;66.17;102097.47;5141646;27;20052;-65
2023/10/07 03:03:32;;;;;;;14.98;6.57;;;;;;;16.59;66.55;102104.56;5142280;27;20081;-63
2023/10/07 03:06:06;;;;;;;13.95;5.97;;;;;;;16.58;66.58;102102.91;5142963;27;20071;-64
2023/10/07 03:08:47;;;;;;;14.20;6.28;;;;;;;16.58;66.56;102102.91;5147064;27;20043;-64
2023/10/07 03:11:21;;;;;;;10.80;5.00;;;;;;;16.56;66.53;102100.44;5149981;27;20042;-64
2023/10/07 03:13:50;;;;;;;15.38;7.35;;;;;;;16.57;67.00;102103.97;5143026;27;20039;-63
2023/10/07 03:16:28;;;;;;;15.90;6.50;;;;;;;16.57;67.23;102101.25;5147770;27;20185;-64
2023/10/07 03:19:06;;;;;;;12.57;5.63;;;;;;;16.57;66.66;102106.69;5149481;27;20071;-64
2023/10/07 03:24:39;;;;;;;12.50;5.70;;;;;;;16.55;66.94;102097.94;5138250;27;20046;-64
2023/10/07 03:27:12;;;;;;;16.27;6.30;;;;;;;16.57;67.10;102104.78;5147679;27;20135;-64
2023/10/07 03:29:58;;;;;;;15.77;6.68;;;;;;;16.56;67.05;102103.13;5142458;27;20330;-63
2023/10/07 03:32:32;;;;;;;16.48;5.75;;;;;;;16.56;66.69;102100.44;5146477;27;20096;-64
2023/10/07 03:35:00;;;;;;;9.52;5.75;;;;;;;16.56;66.72;102107.75;5145607;27;20047;-64
2023/10/07 03:37:30;;;;;;;16.90;6.13;;;;;;;16.56;66.98;102100.44;5144389;27;20055;-64
2023/10/07 03:40:18;;;;;;;19.75;6.65;;;;;;;16.57;67.16;102093.09;5149669;27;20137;-66
2023/10/07 03:42:47;;;;;;;13.40;5.88;;;;;;;16.56;66.77;102100.44;5145681;27;20111;-64
2023/10/07 03:45:15;;;;;;;11.77;5.45;;;;;;;16.57;66.85;102095.81;5150328;27;20050;-64
2023/10/07 03:47:46;;;;;;;15.55;6.32;;;;;;;16.56;66.91;102086.03;5144821;27;20695;-63
2023/10/07 03:50:34;;;;;;;11.00;5.82;;;;;;;16.56;66.71;102088.75;5142902;27;20051;-65
2023/10/07 03:53:02;;;;;;;14.88;7.13;;;;;;;16.57;66.98;102091.22;5147656;27;20047;-65
2023/10/07 03:55:30;;;;;;;13.13;6.45;;;;;;;16.55;66.71;102077.06;5138922;27;20054;-65
2023/10/07 03:58:00;;;;;;;11.40;6.25;;;;;;;16.56;66.74;102083.31;5150440;27;20075;-65
2023/10/07 04:00:33;;;;;;;12.40;5.10;;;;;;;16.56;66.77;102077.88;5143819;27;20055;-65
2023/10/07 04:03:07;;;;;;;12.90;6.15;;;;;;;16.56;66.55;102072.44;5143775;27;20046;-65
2023/10/07 04:05:42;;;;;;;12.18;5.75;;;;;;;16.56;66.72;102080.59;5146060;27;20094;-65
2023/10/07 04:08:10;;;;;;;13.32;6.45;;;;;;;16.55;67.21;102063.47;5148663;27;20126;-64
2023/10/07 04:10:43;;;;;;;11.38;6.15;;;;;;;16.55;67.09;102060.78;5156184;27;20046;-65
2023/10/07 04:13:21;;;;;;;11.45;6.18;;;;;;;16.54;67.14;102050.97;5148636;27;20493;-65
2023/10/07 04:15:52;;;;;;;10.63;5.63;;;;;;;16.54;66.88;102050.16;5147564;27;20035;-65
2023/10/07 04:18:33;;;;;;;10.70;5.40;;;;;;;16.55;66.98;102049.09;5146248;27;20043;-65
2023/10/07 04:21:02;;;;;;;11.55;5.75;;;;;;;16.55;67.00;102054.53;5152169;27;20047;-64
2023/10/07 04:23:31;;;;;;;12.85;5.65;;;;;;;16.53;67.11;102054.75;5148138;27;20047;-65
2023/10/07 04:26:08;;;;;;;10.35;5.90;;;;;;;16.54;66.99;102050.97;5143368;27;20043;-65
2023/10/07 04:28:39;;;;;;;9.90;5.50;;;;;;;16.55;67.03;102046.38;5144656;27;20039;-64
2023/10/07 04:31:10;;;;;;;10.13;5.47;;;;;;;16.54;66.83;102045.53;5140691;27;20072;-64
2023/10/07 04:33:47;;;;;;;16.88;5.53;;;;;;;16.55;66.99;102051.81;5141278;27;20508;-65
2023/10/07 04:36:23;;;;;;;16.52;5.70;;;;;;;16.55;67.37;102052.63;5144212;27;20081;-64
2023/10/07 04:38:56;;;;;;;10.38;4.65;;;;;;;16.54;67.30;102061.00;5140875;27;20069;-65
2023/10/07 04:41:30;;;;;;;14.73;5.78;;;;;;;16.54;66.95;102063.72;4786900;27;10000251;-64
2023/10/07 04:44:20;;;;;;;10.73;5.28;;;;;;;16.55;67.46;102059.94;5131751;27;20051;-63
2023/10/07 04:46:56;;;;;;;11.77;5.68;;;;;;;16.53;67.39;102073.75;5134894;27;20039;-64
2023/10/07 04:49:36;;;;;;;12.20;5.57;;;;;;;16.53;67.74;102072.91;5139502;27;20061;-64
2023/10/07 04:52:07;;;;;;;10.93;4.95;;;;;;;16.52;67.78;102063.13;5135837;27;20047;-63
2023/10/07 04:54:35;;;;;;;8.85;5.07;;;;;;;16.53;67.86;102083.78;5138860;27;20122;-64
2023/10/07 04:57:10;;;;;;;11.23;5.18;;;;;;;16.51;67.88;102094.03;5136192;27;20039;-64
2023/10/07 04:59:45;;;;;;;10.65;5.75;;;;;;;16.51;67.99;102080.47;5138774;27;20043;-64
2023/10/07 05:02:15;;;;;;;10.80;4.68;;;;;;;16.52;67.96;102087.53;5142180;27;20142;-64
2023/10/07 05:04:49;;;;;;;11.20;5.22;;;;;;;16.53;68.04;102083.78;5137347;27;20496;-64
2023/10/07 05:07:24;;;;;;;10.48;4.10;;;;;;;16.52;68.09;102084.84;5138182;27;20132;-65
2023/10/07 05:09:52;;;;;;;9.93;4.70;;;;;;;16.46;68.29;102070.31;5142430;27;20055;-66
2023/10/07 05:12:21;;;;;;;11.50;4.63;;;;;;;16.50;68.11;102076.09;5137131;27;20423;-64
2023/10/07 05:14:49;;;;;;;12.65;4.85;;;;;;;16.50;68.34;102081.53;5138636;27;20088;-64
2023/10/07 05:17:17;;;;;;;10.75;4.32;;;;;;;16.50;68.30;102081.53;5149734;27;20116;-63
2023/10/07 05:19:46;;;;;;;11.20;5.00;;;;;;;16.49;68.38;102083.41;5138847;27;20116;-64
2023/10/07 05:22:15;;;;;;;8.10;4.60;;;;;;;16.49;68.32;102086.13;5139427;27;20047;-64
2023/10/07 05:24:46;;;;;;;11.15;4.68;;;;;;;16.49;68.17;102086.13;5140896;27;20072;-64
2023/10/07 05:27:15;;;;;;;10.80;4.78;;;;;;;16.48;68.26;102083.63;5140303;27;20054;-65
2023/10/07 05:29:45;;;;;;;10.15;4.38;;;;;;;16.47;68.17;102085.53;5143018;27;20138;-66
2023/10/07 05:32:16;;;;;;;9.02;4.57;;;;;;;16.50;68.12;102097.81;5148678;27;20039;-66
2023/10/07 05:34:46;;;;;;;13.48;4.93;;;;;;;16.49;68.00;102086.13;5152681;27;20057;-65
2023/10/07 05:37:15;;;;;;;9.10;4.50;;;;;;;16.50;67.96;102078.81;5144899;27;20035;-65
2023/10/07 05:39:43;;;;;;;8.07;4.00;;;;;;;16.49;67.93;102069.00;5146894;27;20047;-65
2023/10/07 05:42:11;;;;;;;8.90;4.35;;;;;;;16.50;67.70;102067.94;5141792;27;20080;-65
2023/10/07 05:44:40;;;;;;;7.57;4.07;;;;;;;16.50;67.91;102060.63;5143382;27;20051;-65
2023/10/07 05:47:09;;;;;;;14.02;5.18;;;;;;;16.50;67.84;102067.94;5141226;27;20073;-66
2023/10/07 05:49:41;;;;;;;8.38;4.63;;;;;;;16.50;67.58;102073.38;5139070;27;20104;-65
2023/10/07 05:52:09;;;;;;;12.35;3.83;;;;;;;16.39;67.93;102053.28;5141420;27;20047;-68
2023/10/07 05:54:36;;;;;;;11.15;4.53;;;;;;;16.45;68.01;102070.53;5140776;27;20082;-67
2023/10/07 05:57:07;;;;;;;10.57;3.63;;;;;;;16.50;67.83;102076.91;5143464;27;20050;-67
2023/10/07 05:59:35;;;;;;;8.00;3.55;;;;;;;16.50;67.90;102084.22;5143774;27;20066;-66
2023/10/07 06:02:05;;;;;;;8.55;3.88;;;;;;;16.50;67.90;102078.81;5148834;27;20516;-63
2023/10/07 06:04:35;;;;;;;8.63;3.97;;;;;;;16.50;67.96;102076.91;5138128;27;20081;-65
2023/10/07 06:07:06;;;;;;;11.10;5.13;;;;;;;16.48;69.03;102075.50;5136855;27;20039;-70
2023/10/07 06:09:36;;;;;;;13.80;4.35;;;;;;;16.48;69.11;102083.63;5145294;27;20456;-65
2023/10/07 06:12:07;;;;;;;11.45;4.72;;;;;;;16.47;69.06;102092.84;5141142;27;20035;-65
2023/10/07 06:14:35;;;;;;;10.60;3.92;;;;;;;16.47;68.92;102090.94;5141256;27;20053;-65
2023/10/07 06:17:06;;;;;;;10.07;4.13;;;;;;;16.47;69.02;102087.41;5138933;27;20035;-65
2023/10/07 06:19:34;;;;;;;10.13;3.80;;;;;;;16.48;68.85;102089.06;5144999;27;20074;-65
2023/10/07 06:22:11;;;;;;;13.68;4.57;;;;;;;16.47;68.74;102090.13;5140173;27;20050;-65
2023/10/07 06:24:40;;;;;;;;;;;;;;;16.48;68.50;102095.31;5142112;27;20047;-65
2023/10/07 06:27:11;;;;;;;9.02;4.05;;;;;;;16.43;68.33;102088.94;5138290;27;19923;-65
2023/10/07 06:29:43;;;;;;;10.88;3.85;;;;;;;16.37;68.26;102070.84;5142949;27;20542;-65
2023/10/07 06:32:23;;;;;;;9.52;4.15;;;;;;;16.50;68.23;102095.09;5137365;27;20047;-66
2023/10/07 06:34:55;;;;;;;8.93;3.90;;;;;;;16.49;68.29;102102.41;5147922;27;20062;-65
2023/10/07 06:37:28;;;;;;;14.75;4.32;;;;;;;16.48;68.15;102097.22;5142547;27;20070;-65
2023/10/07 06:40:00;;;;;;;8.20;3.55;;;;;;;16.50;68.25;102105.94;5141864;27;20152;-64
2023/10/07 06:42:28;;;;;;;8.10;3.88;;;;;;;16.48;68.52;102105.34;5138954;27;20515;-66
2023/10/07 06:45:02;;;;;;;9.80;3.88;;;;;;;16.48;68.38;102117.03;5145625;27;20047;-67
2023/10/07 06:47:32;;;;;;;12.40;4.85;;;;;;;16.49;68.26;102107.00;5140215;27;20043;-67
2023/10/07 06:50:03;;;;;;;8.95;3.80;;;;;;;16.50;68.18;102103.22;5149125;27;20615;-67
2023/10/07 06:52:34;;;;;;;8.88;3.65;;;;;;;16.50;68.15;102103.22;5147981;27;20054;-67
2023/10/07 06:55:03;;;;;;;7.78;3.50;;;;;;;16.50;68.19;102105.94;5151090;27;20079;-66
2023/10/07 06:57:42;;;;;;;7.30;3.10;;;;;;;16.49;68.03;102107.00;5151046;27;20142;-66
2023/10/07 07:00:21;;;;;;;9.05;4.53;;;;;;;16.48;68.19;102119.75;5138846;27;20050;-66
2023/10/07 07:02:57;;;;;;;9.25;3.55;;;;;;;16.48;68.42;102127.06;5145355;27;20039;-69
2023/10/07 07:05:27;;;;;;;11.13;3.63;;;;;;;16.46;68.55;102121.03;5143811;27;20055;-66
2023/10/07 07:07:59;;;;;;;8.70;3.78;;;;;;;16.47;68.77;102130.84;5142877;27;20035;-65
2023/10/07 07:10:31;;;;;;;8.52;3.22;;;;;;;16.46;68.70;102127.28;5146885;27;20126;-66
2023/10/07 07:13:04;;;;;;;6.82;2.78;;;;;;;16.47;68.58;102115.38;5142172;27;20171;-66
2023/10/07 07:15:37;;;;;;;7.78;3.85;;;;;;;16.49;68.32;102110.53;5144145;27;20054;-66
2023/10/07 07:18:19;;;;;;;12.43;3.95;;;;;;;16.55;68.23;102123.19;5142968;27;20043;-66
2023/10/07 07:21:00;;;;;;;10.45;4.75;;;;;;;16.53;68.32;102121.78;5145977;27;20043;-66
2023/10/07 07:23:36;;;;;;;11.25;3.88;;;;;;;16.52;68.45;102136.41;5141711;27;20054;-65
2023/10/07 07:26:09;;;;;;;9.88;3.40;;;;;;;16.67;67.71;102138.72;5145165;27;20047;-68
2023/10/07 07:28:42;;;;;;;10.77;4.82;;;;;;;16.63;69.04;102143.75;5150278;27;20146;-67
2023/10/07 07:31:12;;;;;;;6.22;3.85;;;;;;;16.55;69.34;102152.22;5142617;27;20043;-70
2023/10/07 07:33:41;;;;;;;10.65;3.92;;;;;;;16.67;68.94;102142.28;5149659;27;20057;-68
2023/10/07 07:36:18;;;;;;;9.15;3.63;;;;;;;16.60;68.53;102149.66;5143722;27;20058;-70
2023/10/07 07:38:47;;;;;;;11.32;4.40;;;;;;;16.56;69.21;102145.72;5143592;27;20382;-71
2023/10/07 07:41:34;;;;;;;11.30;4.82;;;;;;;16.54;70.31;102148.69;5144033;27;20119;-70
2023/10/07 07:44:08;;;;;;;13.35;5.32;;;;;;;16.53;70.42;102147.03;5149606;27;20042;-66
2023/10/07 07:46:51;;;;;;;12.23;4.40;;;;;;;16.53;70.48;102152.44;5144861;27;20471;-65
2023/10/07 07:49:27;;;;;;;11.63;3.85;;;;;;;16.54;70.23;102159.53;5151761;27;20043;-64
2023/10/07 07:51:56;;;;;;;7.85;3.85;;;;;;;16.56;69.92;102156.59;5144048;27;20083;-65
2023/10/07 07:54:25;;;;;;;11.60;4.68;;;;;;;16.57;69.58;102145.50;5145702;27;20046;-64
2023/10/07 07:56:54;;;;;;;9.98;3.80;;;;;;;16.58;69.37;102138.19;5146475;27;20062;-64
2023/10/07 07:59:24;;;;;;;13.98;4.40;;;;;;;16.57;69.13;102137.38;5140554;27;20048;-64
2023/10/07 08:01:53;;;;;;;12.20;4.05;;;;;;;16.57;69.15;102137.38;5153457;27;20114;-64
2023/10/07 08:07:07;;;;;;;9.82;3.97;;;;;;;16.59;69.70;102148.81;5138446;27;20107;-63
2023/10/07 08:09:37;;;;;;;11.90;3.83;;;;;;;16.59;69.55;102146.09;5151528;27;20109;-62
2023/10/07 08:12:09;;;;;;;10.60;4.38;;;;;;;16.60;69.35;102152.38;5148208;27;20061;-64
2023/10/07 08:14:38;;;;;;;7.38;3.63;;;;;;;16.58;69.48;102158.03;5146426;27;20088;-65
2023/10/07 08:17:08;;;;;;;8.05;3.28;;;;;;;16.58;69.29;102159.91;5147919;27;20081;-65
2023/10/07 08:19:38;;;;;;;10.50;3.35;;;;;;;16.58;69.14;102165.34;5144289;27;20514;-64
2023/10/07 08:22:16;;;;;;;8.35;3.70;;;;;;;16.59;69.26;102167.81;5144617;27;20047;-63
2023/10/07 08:24:45;;;;;;;9.73;4.18;;;;;;;16.59;69.33;102173.25;5145682;27;20047;-65
2023/10/07 08:30:04;;;;;;;7.10;3.20;;;;;;;16.60;69.26;102163.22;5144343;27;20100;-65
2023/10/07 08:32:35;;;;;;;7.47;4.00;;;;;;;16.70;68.97;102168.13;5145241;27;20072;-66
2023/10/07 08:35:09;;;;;;;10.05;3.47;;;;;;;16.65;68.96;102157.13;5140662;27;20047;-65
2023/10/07 08:37:37;;;;;;;9.27;3.72;;;;;;;16.65;69.13;102165.28;5143940;27;20468;-63
2023/10/07 08:40:15;;;;;;;15.20;3.92;;;;;;;16.63;69.26;102160.03;5151984;27;20090;-64
2023/10/07 08:42:45;;;;;;;7.00;3.13;;;;;;;16.66;69.38;102166.94;5146693;27;20055;-65
2023/10/07 08:45:16;;;;;;;9.02;3.30;;;;;;;16.55;69.27;102147.63;5143789;27;20139;-65
2023/10/07 08:47:49;;;;;;;10.82;3.97;;;;;;;16.67;69.33;102158.56;5139588;27;20104;-63
2023/10/07 08:50:22;;;;;;;8.40;3.28;;;;;;;16.67;69.22;102158.56;5142527;27;20405;-64
2023/10/07 08:52:58;;;;;;;9.27;3.70;;;;;;;16.81;69.14;102161.91;5151788;27;20094;-64
2023/10/07 08:55:28;;;;;;;10.20;3.47;;;;;;;16.75;69.08;102157.41;5148614;27;20047;-65
2023/10/07 08:57:57;;;;;;;10.82;4.05;;;;;;;16.74;69.14;102159.28;5149067;27;20039;-65
2023/10/07 09:00:31;;;;;;;10.02;4.22;;;;;;;16.79;69.28;102154.00;5146498;27;20111;-64
2023/10/07 09:03:00;;;;;;;7.75;4.10;;;;;;;16.80;69.12;102143.97;5151482;27;20051;-64
2023/10/07 09:05:29;;;;;;;15.90;4.53;;;;;;;16.77;69.36;102147.97;5146154;27;20047;-65
2023/10/07 09:07:57;;;;;;;8.07;3.78;;;;;;;16.76;69.47;102143.59;5143797;27;20080;-65
2023/10/07 09:10:29;;;;;;;10.38;3.45;;;;;;;16.78;69.25;102146.09;5147428;27;20069;-64
2023/10/07 09:13:04;;;;;;;8.35;3.83;;;;;;;16.77;69.52;102145.25;5140054;27;20070;-65
2023/10/07 09:15:36;;;;;;;10.85;3.97;;;;;;;16.79;69.63;102151.28;5152439;27;20050;-65
2023/10/07 09:18:04;;;;;;;9.45;3.80;;;;;;;16.82;69.49;102139.97;5146777;27;20047;-65
2023/10/07 09:20:35;;;;;;;10.18;3.78;;;;;;;16.84;69.63;102145.16;5147096;27;20077;-65
2023/10/07 09:23:07;;;;;;;9.13;3.60;;;;;;;16.90;69.56;102136.91;5152656;27;20046;-65
2023/10/07 09:25:36;;;;;;;6.35;3.50;;;;;;;17.00;69.24;102122.75;5149426;27;20115;-65
2023/10/07 09:28:07;;;;;;;9.90;3.58;;;;;;;17.08;69.16;102127.84;5149749;27;20116;-64
2023/10/07 09:30:44;;;;;;;9.15;3.75;;;;;;;17.13;69.37;102122.56;5145841;27;20059;-66
2023/10/07 09:33:15;;;;;;;9.13;3.42;;;;;;;17.09;69.34;102124.06;5147429;27;20057;-64
2023/10/07 09:35:46;;;;;;;8.18;3.60;;;;;;;17.16;69.22;102126.69;5147561;27;20058;-65
2023/10/07 09:38:27;;;;;;;9.13;3.65;;;;;;;17.01;69.17;102108.13;5144203;27;20055;-65
2023/10/07 09:41:13;;;;;;;8.68;3.70;;;;;;;17.21;69.03;102146.66;5150045;27;20110;-64
2023/10/07 09:43:47;;;;;;;9.52;3.22;;;;;;;17.06;69.08;102121.00;5150508;27;20050;-63
2023/10/07 09:46:24;;;;;;;10.55;3.80;;;;;;;17.09;69.07;102129.50;5142306;27;20051;-63
2023/10/07 09:49:05;;;;;;;11.95;4.68;;;;;;;17.17;69.11;102134.59;5143740;27;20441;-64
2023/10/07 09:51:40;;;;;;;8.63;3.20;;;;;;;17.26;69.20;102131.53;5146352;27;20072;-63
2023/10/07 09:54:23;;;;;;;8.80;3.30;;;;;;;17.26;69.13;102131.53;5140833;27;20144;-63
2023/10/07 09:57:14;;;;;;;9.02;3.50;;;;;;;17.24;69.75;102129.88;5149469;27;20096;-64
2023/10/07 09:59:59;;;;;;;5.50;2.83;;;;;;;17.29;69.16;102120.19;5145498;27;20108;-64
2023/10/07 10:02:45;;;;;;;6.68;3.90;;;;;;;17.35;69.13;102130.94;5143241;27;20221;-64
2023/10/07 10:05:35;;;;;;;6.13;3.05;;;;;;;17.35;68.89;102124.66;5147679;27;20064;-64
2023/10/07 10:08:28;;;;;;;7.55;3.53;;;;;;;17.35;68.89;102121.94;5140719;27;20129;-64
2023/10/07 10:10:59;;;;;;;8.15;3.20;;;;;;;17.29;68.79;102118.31;5149955;27;20043;-64
2023/10/07 10:13:51;;;;;;;8.85;4.22;;;;;;;17.33;68.76;102129.53;5144749;27;20047;-64
2023/10/07 10:16:29;;;;;;;8.20;3.40;;;;;;;17.34;68.66;102123.00;5148668;27;20058;-64
2023/10/07 10:19:16;;;;;;;8.65;4.00;;;;;;;17.39;68.58;102134.81;5144386;27;20061;-61
2023/10/07 10:21:44;;;;;;;7.28;3.17;;;;;;;17.33;68.43;102114.06;5146669;27;20053;-66
2023/10/07 10:24:16;;;;;;;10.18;3.42;;;;;;;17.44;68.26;102136.84;5150247;27;20116;-65
2023/10/07 10:26:45;;;;;;;14.05;3.58;;;;;;;17.45;68.36;102135.78;5145347;27;20092;-64
2023/10/07 10:29:25;;;;;;;11.80;3.30;;;;;;;17.46;68.76;102145.59;5146527;27;20043;-64
2023/10/07 10:31:58;;;;;;;10.60;3.28;;;;;;;17.50;68.86;102150.31;5151162;27;20072;-68
2023/10/07 10:34:27;;;;;;;8.55;3.15;;;;;;;17.55;68.67;102144.16;5143828;27;20055;-66
2023/10/07 10:36:57;;;;;;;11.90;3.80;;;;;;;17.61;69.01;102136.94;5144454;27;20042;-66
2023/10/07 10:39:31;;;;;;;7.03;3.28;;;;;;;17.60;68.62;102151.63;5146761;27;20042;-65
2023/10/07 10:42:13;;;;;;;8.23;3.95;;;;;;;17.63;68.62;102151.97;5145970;27;20047;-64
2023/10/07 10:44:48;;;;;;;9.98;3.80;;;;;;;17.64;68.44;102142.75;5149704;27;20054;-64
2023/10/07 10:47:18;;;;;;;7.95;3.17;;;;;;;17.67;68.29;102152.34;5141932;27;20076;-65
2023/10/07 10:49:47;;;;;;;13.27;3.50;;;;;;;17.69;68.71;102152.94;5142196;27;20044;-65
2023/10/07 10:52:18;;;;;;;8.50;3.60;;;;;;;17.71;68.69;102150.81;5145204;27;20115;-65
2023/10/07 10:54:46;;;;;;;6.63;3.17;;;;;;;17.72;68.41;102155.19;5150147;27;20092;-65
2023/10/07 10:57:19;;;;;;;9.60;2.97;;;;;;;17.74;68.66;102153.88;5145079;27;20050;-65
2023/10/07 10:59:49;;;;;;;9.75;3.10;;;;;;;17.78;68.39;102140.63;5147222;27;20067;-66
2023/10/07 11:02:20;;;;;;;9.55;3.83;;;;;;;17.81;68.75;102138.28;5144603;27;20070;-64
2023/10/07 11:04:51;;;;;;;7.30;3.05;;;;;;;17.85;68.96;102142.16;5145701;27;20043;-65
2023/10/07 11:07:19;;;;;;;10.02;3.33;;;;;;;17.86;68.66;102143.00;5145423;27;20479;-66
2023/10/07 11:09:49;;;;;;;8.82;3.97;;;;;;;17.87;68.39;102141.94;5143467;27;20055;-66
2023/10/07 11:12:17;;;;;;;7.88;2.97;;;;;;;17.95;68.82;102141.56;5143953;27;20346;-67
2023/10/07 11:14:47;;;;;;;8.98;3.42;;;;;;;17.99;68.17;102134.56;5144946;27;20041;-67
2023/10/07 11:17:17;;;;;;;6.60;2.72;;;;;;;18.01;68.36;102135.16;5138621;27;20041;-68
2023/10/07 11:19:47;;;;;;;8.25;3.28;;;;;;;18.04;68.53;102126.53;5148467;27;20551;-68
2023/10/07 11:22:19;;;;;;;6.97;3.20;;;;;;;18.11;68.50;102129.94;5144419;27;20464;-68
2023/10/07 11:24:50;;;;;;;8.50;3.63;;;;;;;18.15;67.97;102128.38;5145683;27;20492;-68
2023/10/07 11:27:18;;;;;;;7.93;3.40;;;;;;;18.17;68.31;102128.97;5147987;27;20047;-67
2023/10/07 11:29:57;;;;;;;8.32;2.70;;;;;;;18.29;68.03;102128.94;5141643;27;20094;-68
2023/10/07 11:32:33;;;;;;;8.30;3.97;;;;;;;18.31;68.40;102124.06;5143459;27;20111;-67
2023/10/07 11:35:02;;;;;;;;;;;;;;;18.31;68.04;102115.09;5141714;27;20072;-68
2023/10/07 11:37:32;;;;;;;15.02;4.57;;;;;;;18.36;67.56;102115.19;5145162;27;19920;-67
2023/10/07 11:40:02;;;;;;;11.13;3.60;;;;;;;18.37;68.04;102123.09;5151684;27;20044;-64
2023/10/07 11:42:29;;;;;;;9.45;3.58;;;;;;;18.36;67.86;102120.63;5147972;27;20066;-66
2023/10/07 11:44:57;;;;;;;7.38;3.15;;;;;;;18.44;67.32;102125.69;5143251;27;20134;-66
2023/10/07 11:47:27;;;;;;;7.40;2.83;;;;;;;18.45;67.50;102117.28;5148962;27;20051;-67
2023/10/07 11:49:56;;;;;;;8.45;3.17;;;;;;;18.49;67.29;102114.88;5147650;27;20060;-66
2023/10/07 11:52:27;;;;;;;8.82;4.10;;;;;;;18.53;66.91;102113.34;5142288;27;20136;-66
2023/10/07 11:54:55;;;;;;;8.57;3.75;;;;;;;18.51;66.71;102116.31;5141631;27;20118;-65
2023/10/07 11:57:24;;;;;;;11.48;3.60;;;;;;;18.52;66.44;102122.56;5145557;27;20520;-64
2023/10/07 11:59:52;;;;;;;10.48;3.95;;;;;;;18.50;66.53;102114.66;5138596;27;20376;-65